Time;durP1;ratioP1;P1;durP2;ratioP2;P2;SDS_P1;SDS_P2;PMS_P1;PMS_P2;Temp;Humidity;BMP_temperature;BMP_pressure;BME280_temperature;BME280_humidity;BME280_pressure;Samples;Min_cycle;Max_cycle;Signal;HPM_P1;HPM_P2
2022/12/27 00:00:08;;;;;;;;;7.00;6.00;;;;;;;;116808;1197;25305;-71
2022/12/27 00:02:56;;;;;;;;;9.00;5.50;;;;;;;;116747;1197;25101;-71
2022/12/27 00:05:24;;;;;;;;;7.00;4.00;;;;;;;;116735;1196;25128;-71
2022/12/27 00:07:54;;;;;;;;;8.67;7.00;;;;;;;;116714;1200;25322;-71
2022/12/27 00:10:22;;;;;;;;;6.00;5.50;;;;;;;;116754;1203;25147;-71
2022/12/27 00:12:52;;;;;;;;;7.00;5.00;;;;;;;;116750;1199;24754;-71
2022/12/27 00:15:20;;;;;;;;;9.33;5.67;;;;;;;;116708;1206;25104;-71
2022/12/27 00:17:48;;;;;;;;;6.00;4.00;;;;;;;;116781;1203;24916;-69
2022/12/27 00:20:17;;;;;;;;;5.25;4.75;;;;;;;;116765;1200;25457;-69
2022/12/27 00:22:45;;;;;;;;;6.00;5.67;;;;;;;;116771;1200;25091;-69
2022/12/27 00:25:13;;;;;;;;;9.00;8.00;;;;;;;;116732;1200;25053;-70
2022/12/27 00:27:41;;;;;;;;;7.00;5.00;;;;;;;;116723;1205;24971;-69
2022/12/27 00:30:10;;;;;;;;;7.33;5.67;;;;;;;;116705;1196;25290;-69
2022/12/27 00:32:38;;;;;;;;;9.00;5.33;;;;;;;;116754;1200;25185;-69
2022/12/27 00:35:07;;;;;;;;;7.67;5.00;;;;;;;;116730;1193;25620;-69
2022/12/27 00:37:35;;;;;;;;;7.33;5.33;;;;;;;;116731;1206;25224;-69
2022/12/27 00:40:04;;;;;;;;;7.67;6.00;;;;;;;;116753;1200;25215;-69
2022/12/27 00:42:32;;;;;;;;;8.25;6.50;;;;;;;;116732;1193;24664;-70
2022/12/27 00:45:00;;;;;;;;;5.67;4.33;;;;;;;;116731;1200;24853;-70
2022/12/27 00:47:29;;;;;;;;;4.00;4.00;;;;;;;;116738;1198;25167;-70
2022/12/27 00:49:57;;;;;;;;;5.00;5.00;;;;;;;;116728;1200;25290;-70
2022/12/27 00:52:25;;;;;;;;;4.50;2.50;;;;;;;;116754;1202;25416;-70
2022/12/27 00:54:53;;;;;;;;;5.50;5.50;;;;;;;;116749;1199;25331;-70
2022/12/27 00:57:22;;;;;;;;;6.00;6.00;;;;;;;;116739;1202;24744;-71
2022/12/27 00:59:50;;;;;;;;;7.33;5.00;;;;;;;;116747;1206;25463;-71
2022/12/27 01:02:18;;;;;;;;;9.67;6.67;;;;;;;;116710;1200;24856;-71
2022/12/27 01:04:46;;;;;;;;;6.50;6.00;;;;;;;;117080;1194;25090;-71
2022/12/27 01:07:14;;;;;;;;;6.33;6.33;;;;;;;;116744;1203;25108;-72
2022/12/27 01:09:43;;;;;;;;;9.00;6.00;;;;;;;;116724;1194;25578;-71
2022/12/27 01:12:11;;;;;;;;;7.00;6.00;;;;;;;;116718;1206;25406;-71
2022/12/27 01:14:39;;;;;;;;;10.00;5.00;;;;;;;;116786;1200;24852;-71
2022/12/27 01:17:08;;;;;;;;;8.00;5.25;;;;;;;;116785;1201;24840;-70
2022/12/27 01:19:37;;;;;;;;;9.00;7.00;;;;;;;;116731;1198;25281;-70
2022/12/27 01:22:06;;;;;;;;;8.00;6.00;;;;;;;;116763;1205;25239;-70
2022/12/27 01:24:34;;;;;;;;;10.00;6.00;;;;;;;;116750;1199;25613;-69
2022/12/27 01:27:02;;;;;;;;;6.00;5.00;;;;;;;;116748;1203;25265;-70
2022/12/27 01:29:31;;;;;;;;;5.67;5.00;;;;;;;;116744;1203;24884;-70
2022/12/27 01:31:59;;;;;;;;;9.00;5.00;;;;;;;;116750;1201;24867;-70
2022/12/27 01:34:27;;;;;;;;;6.25;6.00;;;;;;;;116716;1198;25064;-70
2022/12/27 01:36:56;;;;;;;;;11.50;7.50;;;;;;;;116719;1200;25623;-70
2022/12/27 01:39:24;;;;;;;;;6.00;6.00;;;;;;;;116743;1200;24974;-70
2022/12/27 01:44:42;;;;;;;;;6.50;5.00;;;;;;;;116776;1196;25319;-71
2022/12/27 01:47:21;;;;;;;;;7.50;6.00;;;;;;;;116738;1200;24700;-70
2022/12/27 01:50:07;;;;;;;;;8.50;6.00;;;;;;;;116704;1204;25563;-70
2022/12/27 01:52:47;;;;;;;;;4.00;4.00;;;;;;;;116745;1203;25253;-70
2022/12/27 01:55:19;;;;;;;;;7.00;5.67;;;;;;;;116731;1198;25228;-69
2022/12/27 01:57:49;;;;;;;;;6.50;5.50;;;;;;;;116768;1200;26309;-69
2022/12/27 02:00:17;;;;;;;;;5.00;5.00;;;;;;;;116778;1199;25693;-69
2022/12/27 02:02:45;;;;;;;;;5.33;5.33;;;;;;;;116728;1198;25000;-69
2022/12/27 02:05:16;;;;;;;;;7.00;6.67;;;;;;;;116782;1200;25117;-69
2022/12/27 02:07:59;;;;;;;;;4.00;2.00;;;;;;;;116771;1199;24986;-69
2022/12/27 02:10:28;;;;;;;;;5.67;5.67;;;;;;;;116801;1193;24787;-69
2022/12/27 02:12:57;;;;;;;;;5.00;5.00;;;;;;;;116782;1198;25306;-69
2022/12/27 02:15:25;;;;;;;;;5.00;5.00;;;;;;;;116783;1198;25289;-69
2022/12/27 02:17:53;;;;;;;;;7.50;5.25;;;;;;;;117049;1198;24958;-69
2022/12/27 02:20:23;;;;;;;;;4.33;4.33;;;;;;;;116780;1207;24996;-71
2022/12/27 02:26:29;;;;;;;;;8.33;6.00;;;;;;;;116752;1200;25606;-71
2022/12/27 02:29:06;;;;;;;;;6.00;5.00;;;;;;;;116807;1189;25589;-70
2022/12/27 02:31:39;;;;;;;;;7.33;7.00;;;;;;;;116773;1200;25200;-70
2022/12/27 02:34:25;;;;;;;;;7.00;5.50;;;;;;;;116753;1199;25542;-69
2022/12/27 02:36:58;;;;;;;;;9.00;6.00;;;;;;;;116732;1200;25503;-69
2022/12/27 02:39:28;;;;;;;;;6.50;6.50;;;;;;;;116775;1200;25651;-69
2022/12/27 02:53:29;;;;;;;;;7.33;6.33;;;;;;;;116743;1208;25066;-72
2022/12/27 02:59:22;;;;;;;;;9.67;6.00;;;;;;;;116800;1195;24814;-73
2022/12/27 03:05:07;;;;;;;;;6.00;3.00;;;;;;;;116735;1197;25271;-69
2022/12/27 03:07:35;;;;;;;;;5.00;5.00;;;;;;;;116697;1197;25225;-69
2022/12/27 03:16:01;;;;;;;;;7.00;4.00;;;;;;;;116719;1199;25385;-69
2022/12/27 03:18:53;;;;;;;;;6.00;5.00;;;;;;;;116732;1193;25026;-69
2022/12/27 03:27:27;;;;;;;;;6.67;6.00;;;;;;;;116808;1196;25058;-69
2022/12/27 03:33:13;;;;;;;;;5.50;5.50;;;;;;;;116725;1207;25087;-69
2022/12/27 03:38:47;;;;;;;;;5.75;3.50;;;;;;;;116722;1198;25089;-68
2022/12/27 03:44:27;;;;;;;;;6.00;3.67;;;;;;;;116755;1195;25615;-69
2022/12/27 03:47:03;;;;;;;;;6.00;5.50;;;;;;;;116728;1193;25290;-69
2022/12/27 03:49:36;;;;;;;;;6.00;5.00;;;;;;;;116800;1200;25608;-69
2022/12/27 03:52:13;;;;;;;;;9.00;7.00;;;;;;;;116791;1196;25579;-70
2022/12/27 03:54:43;;;;;;;;;5.00;5.00;;;;;;;;116768;1204;25536;-70
2022/12/27 03:57:14;;;;;;;;;4.00;4.00;;;;;;;;116789;1197;25397;-70
2022/12/27 03:59:42;;;;;;;;;6.00;5.00;;;;;;;;116760;1203;24660;-70
2022/12/27 04:02:11;;;;;;;;;6.00;3.00;;;;;;;;116788;1203;25610;-69
2022/12/27 04:04:40;;;;;;;;;5.00;4.00;;;;;;;;116780;1198;24951;-69
2022/12/27 04:07:10;;;;;;;;;7.00;5.00;;;;;;;;116773;1203;25215;-70
2022/12/27 04:34:47;;;;;;;;;8.00;8.00;;;;;;;;116744;1195;25502;-69
2022/12/27 04:37:17;;;;;;;;;7.00;7.00;;;;;;;;116751;1199;25131;-68
2022/12/27 04:56:33;;;;;;;;;5.25;4.50;;;;;;;;116726;1196;25304;-68
2022/12/27 05:02:03;;;;;;;;;6.50;4.00;;;;;;;;116745;1199;24908;-70
2022/12/27 05:04:34;;;;;;;;;8.00;6.00;;;;;;;;116780;1200;25663;-68
2022/12/27 05:15:25;;;;;;;;;7.00;5.00;;;;;;;;116764;1193;25240;-69
2022/12/27 05:17:55;;;;;;;;;8.50;6.25;;;;;;;;116730;1198;25175;-70
2022/12/27 05:20:24;;;;;;;;;9.00;5.50;;;;;;;;116723;1198;25003;-70
2022/12/27 05:25:41;;;;;;;;;4.00;4.00;;;;;;;;116712;1208;25151;-69
2022/12/27 05:28:10;;;;;;;;;7.00;5.67;;;;;;;;116789;1199;25539;-69
2022/12/27 05:30:40;;;;;;;;;7.50;6.00;;;;;;;;116777;1200;24828;-69
2022/12/27 05:33:09;;;;;;;;;7.75;5.75;;;;;;;;116803;1197;25609;-68
2022/12/27 05:35:38;;;;;;;;;7.00;5.00;;;;;;;;116757;1203;26535;-68
2022/12/27 05:38:06;;;;;;;;;7.50;7.50;;;;;;;;116745;1200;25450;-68
2022/12/27 05:40:35;;;;;;;;;7.00;7.00;;;;;;;;116751;1203;24651;-75
2022/12/27 05:43:03;;;;;;;;;7.00;6.00;;;;;;;;116728;1198;25673;-68
2022/12/27 05:45:31;;;;;;;;;8.00;5.50;;;;;;;;116741;1203;25386;-69
2022/12/27 05:48:00;;;;;;;;;7.50;7.50;;;;;;;;116796;1199;26004;-69
2022/12/27 05:50:28;;;;;;;;;5.50;4.50;;;;;;;;116808;1208;24957;-69
2022/12/27 05:52:56;;;;;;;;;7.00;5.50;;;;;;;;116760;1199;25987;-69
2022/12/27 05:55:24;;;;;;;;;5.00;5.00;;;;;;;;116807;1205;25130;-68
2022/12/27 05:57:53;;;;;;;;;8.00;5.00;;;;;;;;116767;1193;25224;-69
2022/12/27 06:00:21;;;;;;;;;6.00;5.50;;;;;;;;116746;1199;25353;-68
2022/12/27 06:02:50;;;;;;;;;7.00;7.00;;;;;;;;116721;1200;25422;-69
2022/12/27 06:05:19;;;;;;;;;7.00;5.00;;;;;;;;116719;1200;25717;-68
2022/12/27 06:07:47;;;;;;;;;11.00;5.00;;;;;;;;116745;1203;25124;-68
2022/12/27 06:10:15;;;;;;;;;6.00;5.00;;;;;;;;116783;1206;25063;-67
2022/12/27 06:12:44;;;;;;;;;9.00;7.00;;;;;;;;116747;1208;25025;-66
2022/12/27 06:15:12;;;;;;;;;8.00;8.00;;;;;;;;116785;1203;25349;-67
2022/12/27 06:17:42;;;;;;;;;8.67;6.67;;;;;;;;116756;1200;24833;-67
2022/12/27 06:20:11;;;;;;;;;8.00;6.00;;;;;;;;116735;1203;25176;-65
2022/12/27 06:22:39;;;;;;;;;6.67;5.33;;;;;;;;116748;1198;25082;-65
2022/12/27 06:25:07;;;;;;;;;8.33;5.00;;;;;;;;116719;1196;25112;-66
2022/12/27 06:27:41;;;;;;;;;5.75;5.00;;;;;;;;116761;1195;25185;-65
2022/12/27 06:30:11;;;;;;;;;7.00;6.00;;;;;;;;116745;1203;25563;-70
2022/12/27 06:32:39;;;;;;;;;7.00;5.67;;;;;;;;116722;1200;24982;-66
2022/12/27 06:35:09;;;;;;;;;4.00;3.33;;;;;;;;116721;1203;25396;-67
2022/12/27 06:37:38;;;;;;;;;6.33;4.00;;;;;;;;116788;1200;24874;-65
2022/12/27 06:40:08;;;;;;;;;11.00;8.00;;;;;;;;116736;1200;25077;-66
2022/12/27 06:42:36;;;;;;;;;9.00;8.00;;;;;;;;116750;1200;24707;-66
2022/12/27 06:45:05;;;;;;;;;7.00;7.00;;;;;;;;116832;1194;25123;-66
2022/12/27 06:47:34;;;;;;;;;12.00;8.00;;;;;;;;116742;1203;25601;-69
2022/12/27 06:50:03;;;;;;;;;9.50;5.50;;;;;;;;116719;1201;25077;-76
2022/12/27 06:52:31;;;;;;;;;8.00;6.00;;;;;;;;116762;1200;25066;-74
2022/12/27 06:54:59;;;;;;;;;7.25;5.00;;;;;;;;116738;1193;24767;-67
2022/12/27 06:57:28;;;;;;;;;7.67;6.00;;;;;;;;116731;1200;27390;-66
2022/12/27 06:59:56;;;;;;;;;8.00;8.00;;;;;;;;116753;1189;24891;-69
2022/12/27 07:02:24;;;;;;;;;9.67;7.33;;;;;;;;116740;1196;25676;-67
2022/12/27 07:04:53;;;;;;;;;9.00;7.50;;;;;;;;116738;1199;25669;-71
2022/12/27 07:07:21;;;;;;;;;13.33;11.00;;;;;;;;117057;1193;25517;-67
2022/12/27 07:09:49;;;;;;;;;17.00;12.67;;;;;;;;116750;1196;25620;-69
2022/12/27 07:12:17;;;;;;;;;12.75;11.75;;;;;;;;116768;1203;25617;-68
2022/12/27 07:14:45;;;;;;;;;15.50;14.00;;;;;;;;116811;1200;25131;-70
2022/12/27 07:17:14;;;;;;;;;16.50;13.00;;;;;;;;116707;1206;25587;-69
2022/12/27 07:19:42;;;;;;;;;16.25;12.50;;;;;;;;116736;1203;25329;-72
2022/12/27 07:22:10;;;;;;;;;10.75;9.75;;;;;;;;116806;1200;25319;-68
2022/12/27 07:24:39;;;;;;;;;9.50;8.50;;;;;;;;116767;1200;24726;-65
2022/12/27 07:27:07;;;;;;;;;17.00;12.00;;;;;;;;116738;1193;24975;-67
2022/12/27 07:29:35;;;;;;;;;11.00;9.50;;;;;;;;116714;1200;24987;-68
2022/12/27 07:32:12;;;;;;;;;18.00;10.50;;;;;;;;116790;1200;24696;-66
2022/12/27 07:34:40;;;;;;;;;10.00;9.00;;;;;;;;116695;1198;25558;-68
2022/12/27 07:37:08;;;;;;;;;16.00;13.00;;;;;;;;116794;1198;25001;-65
2022/12/27 07:39:37;;;;;;;;;11.00;8.00;;;;;;;;116771;1203;25012;-64
2022/12/27 07:42:05;;;;;;;;;20.00;13.00;;;;;;;;116718;1199;24892;-64
2022/12/27 07:44:35;;;;;;;;;11.00;6.00;;;;;;;;116783;1196;25336;-65
2022/12/27 07:47:06;;;;;;;;;15.00;10.67;;;;;;;;116803;1203;25431;-64
2022/12/27 07:49:34;;;;;;;;;20.50;18.00;;;;;;;;116756;1193;26339;-66
2022/12/27 07:52:02;;;;;;;;;37.00;31.00;;;;;;;;116776;1201;24646;-65
2022/12/27 07:54:31;;;;;;;;;22.00;20.00;;;;;;;;116812;1203;24940;-66
2022/12/27 07:56:59;;;;;;;;;15.00;11.50;;;;;;;;116825;1200;25373;-66
2022/12/27 07:59:27;;;;;;;;;12.33;12.33;;;;;;;;116745;1199;25044;-65
2022/12/27 08:02:04;;;;;;;;;18.00;13.00;;;;;;;;116753;1199;25127;-65
2022/12/27 08:04:36;;;;;;;;;21.00;15.50;;;;;;;;116786;1200;25605;-65
2022/12/27 08:07:12;;;;;;;;;15.00;12.67;;;;;;;;116726;1206;24895;-65
2022/12/27 08:09:42;;;;;;;;;13.50;11.00;;;;;;;;116722;1200;25572;-66
2022/12/27 08:12:12;;;;;;;;;17.00;13.00;;;;;;;;116768;1202;25438;-67
2022/12/27 08:14:41;;;;;;;;;11.67;11.00;;;;;;;;116733;1199;25317;-72
2022/12/27 08:17:19;;;;;;;;;12.50;10.50;;;;;;;;116806;1196;25416;-67
2022/12/27 08:19:50;;;;;;;;;40.00;23.00;;;;;;;;116778;1205;25449;-67
2022/12/27 08:22:20;;;;;;;;;21.33;12.00;;;;;;;;116799;1193;25283;-65
2022/12/27 08:24:48;;;;;;;;;16.00;11.00;;;;;;;;117067;1190;24974;-65
2022/12/27 08:27:21;;;;;;;;;22.00;13.00;;;;;;;;116824;1193;24706;-64
2022/12/27 08:29:49;;;;;;;;;17.00;12.67;;;;;;;;116796;1200;25323;-67
2022/12/27 08:32:18;;;;;;;;;17.00;11.00;;;;;;;;116779;1193;25296;-74
2022/12/27 08:34:46;;;;;;;;;18.33;13.67;;;;;;;;116719;1196;25114;-64
2022/12/27 08:37:14;;;;;;;;;28.50;17.50;;;;;;;;116717;1202;26325;-67
2022/12/27 08:39:42;;;;;;;;;24.00;13.00;;;;;;;;116798;1206;25354;-66
2022/12/27 08:42:12;;;;;;;;;21.00;14.00;;;;;;;;116800;1200;25447;-65
2022/12/27 08:44:40;;;;;;;;;13.50;10.00;;;;;;;;116764;1208;25141;-65
2022/12/27 08:47:09;;;;;;;;;20.00;13.67;;;;;;;;116769;1199;25365;-65
2022/12/27 08:49:37;;;;;;;;;20.00;14.00;;;;;;;;116750;1203;24828;-63
2022/12/27 08:52:05;;;;;;;;;15.50;13.00;;;;;;;;116727;1199;24910;-65
2022/12/27 08:54:33;;;;;;;;;24.00;17.00;;;;;;;;116721;1203;24813;-65
2022/12/27 08:57:02;;;;;;;;;15.00;12.00;;;;;;;;116766;1208;24669;-67
2022/12/27 08:59:30;;;;;;;;;25.00;14.00;;;;;;;;116822;1206;24923;-65
2022/12/27 09:02:00;;;;;;;;;17.50;10.00;;;;;;;;117018;1199;25338;-62
2022/12/27 09:04:31;;;;;;;;;16.00;14.67;;;;;;;;116761;1196;25690;-67
2022/12/27 09:07:02;;;;;;;;;16.50;10.25;;;;;;;;116772;1196;24699;-64
2022/12/27 09:09:30;;;;;;;;;24.00;15.00;;;;;;;;116764;1200;25147;-64
2022/12/27 09:11:59;;;;;;;;;20.50;14.00;;;;;;;;116735;1203;24900;-74
2022/12/27 09:14:33;;;;;;;;;26.50;21.50;;;;;;;;116714;1200;24765;-77
2022/12/27 09:17:01;;;;;;;;;19.00;15.00;;;;;;;;116771;1203;24689;-82
2022/12/27 09:19:30;;;;;;;;;10.33;8.67;;;;;;;;116772;1200;24884;-81
2022/12/27 09:21:59;;;;;;;;;25.75;16.00;;;;;;;;116719;1203;24716;-81
2022/12/27 09:24:31;;;;;;;;;16.00;13.00;;;;;;;;116741;1205;25680;-76
2022/12/27 09:26:59;;;;;;;;;20.67;12.00;;;;;;;;116693;1200;25134;-79
2022/12/27 09:29:27;;;;;;;;;23.00;17.33;;;;;;;;116742;1203;25112;-82
2022/12/27 09:31:56;;;;;;;;;24.00;18.00;;;;;;;;116738;1208;25952;-67
2022/12/27 09:34:24;;;;;;;;;16.67;14.00;;;;;;;;116729;1203;25606;-69
2022/12/27 09:36:52;;;;;;;;;21.33;15.33;;;;;;;;116741;1198;24652;-72
2022/12/27 09:39:20;;;;;;;;;28.00;15.50;;;;;;;;116741;1202;24848;-80
2022/12/27 09:41:51;;;;;;;;;24.00;17.50;;;;;;;;116718;1199;25263;-73
2022/12/27 09:44:45;;;;;;;;;21.33;18.33;;;;;;;;116737;1196;25388;-78
2022/12/27 09:47:14;;;;;;;;;23.50;20.00;;;;;;;;116787;1198;25028;-73
2022/12/27 09:49:52;;;;;;;;;26.00;14.00;;;;;;;;116773;1203;24818;-72
2022/12/27 09:52:34;;;;;;;;;19.00;14.00;;;;;;;;116773;1200;25403;-74
2022/12/27 09:55:18;;;;;;;;;17.00;13.00;;;;;;;;116812;1193;24714;-75
2022/12/27 09:57:47;;;;;;;;;17.00;13.00;;;;;;;;116769;1197;25641;-80
2022/12/27 10:00:25;;;;;;;;;19.00;12.50;;;;;;;;116770;1199;24808;-71
2022/12/27 10:03:05;;;;;;;;;19.00;15.00;;;;;;;;116726;1199;25474;-71
2022/12/27 10:05:36;;;;;;;;;15.00;12.00;;;;;;;;116739;1198;24865;-69
2022/12/27 10:08:19;;;;;;;;;19.67;14.67;;;;;;;;116778;1200;26019;-71
2022/12/27 10:11:02;;;;;;;;;24.00;13.00;;;;;;;;116774;1208;24910;-73
2022/12/27 10:13:42;;;;;;;;;21.00;17.00;;;;;;;;116795;1200;24811;-78
2022/12/27 10:16:48;;;;;;;;;21.25;15.75;;;;;;;;116704;1199;26058;-72
2022/12/27 10:19:42;;;;;;;;;23.00;15.00;;;;;;;;116777;1195;25636;-69
2022/12/27 10:22:55;;;;;;;;;24.00;17.00;;;;;;;;116794;1198;24968;-75
2022/12/27 10:25:30;;;;;;;;;42.00;29.00;;;;;;;;116495;1200;24758;-66
2022/12/27 10:28:04;;;;;;;;;48.00;34.00;;;;;;;;116381;1206;24802;-68
2022/12/27 10:30:32;;;;;;;;;55.00;38.00;;;;;;;;116656;1206;24993;-75
2022/12/27 10:33:00;;;;;;;;;41.00;28.50;;;;;;;;116763;1203;25349;-70
2022/12/27 10:35:29;;;;;;;;;47.00;35.00;;;;;;;;116765;1200;25627;-72
2022/12/27 10:38:00;;;;;;;;;72.67;50.67;;;;;;;;116767;1203;25134;-67
2022/12/27 10:40:38;;;;;;;;;102.00;85.00;;;;;;;;116751;1208;25155;-65
2022/12/27 10:43:35;;;;;;;;;88.00;71.00;;;;;;;;116782;1202;24770;-65
2022/12/27 10:46:19;;;;;;;;;87.00;63.00;;;;;;;;116819;1206;24817;-67
2022/12/27 10:48:56;;;;;;;;;102.00;86.75;;;;;;;;116591;1197;25327;-66
2022/12/27 10:51:45;;;;;;;;;90.00;69.50;;;;;;;;116795;1196;25630;-65
2022/12/27 10:54:27;;;;;;;;;83.00;60.67;;;;;;;;116814;1200;25283;-67
2022/12/27 10:57:14;;;;;;;;;79.50;61.00;;;;;;;;116719;1193;24843;-63
2022/12/27 10:59:42;;;;;;;;;76.50;56.50;;;;;;;;116753;1198;24815;-69
2022/12/27 11:02:18;;;;;;;;;69.67;53.00;;;;;;;;116780;1200;24742;-68
2022/12/27 11:05:09;;;;;;;;;70.33;53.00;;;;;;;;116782;1200;24884;-73
2022/12/27 11:07:38;;;;;;;;;66.50;51.00;;;;;;;;116751;1203;24750;-69
2022/12/27 11:10:15;;;;;;;;;72.00;53.33;;;;;;;;116772;1205;25121;-73
2022/12/27 11:13:17;;;;;;;;;70.00;51.00;;;;;;;;116735;1208;25111;-67
2022/12/27 11:15:53;;;;;;;;;65.67;49.00;;;;;;;;116717;1208;25757;-78
2022/12/27 11:18:25;;;;;;;;;64.00;48.00;;;;;;;;116792;1192;25198;-72
2022/12/27 11:20:56;;;;;;;;;65.00;47.00;;;;;;;;116808;1196;24764;-64
2022/12/27 11:23:31;;;;;;;;;65.00;48.00;;;;;;;;116775;1200;25426;-67
2022/12/27 11:26:01;;;;;;;;;65.00;47.00;;;;;;;;116781;1197;24997;-69
2022/12/27 11:28:38;;;;;;;;;62.00;47.00;;;;;;;;116759;1202;26021;-76
2022/12/27 11:31:12;;;;;;;;;59.00;44.00;;;;;;;;116735;1200;25377;-64
2022/12/27 11:33:48;;;;;;;;;56.00;44.00;;;;;;;;116761;1206;24866;-69
2022/12/27 11:36:32;;;;;;;;;58.33;44.00;;;;;;;;116769;1196;24874;-67
2022/12/27 11:39:01;;;;;;;;;52.00;38.00;;;;;;;;116719;1200;25272;-67
2022/12/27 11:41:36;;;;;;;;;51.50;41.00;;;;;;;;116773;1204;25628;-72
2022/12/27 11:44:07;;;;;;;;;55.00;43.00;;;;;;;;116762;1202;25252;-71
2022/12/27 11:47:24;;;;;;;;;58.00;42.00;;;;;;;;116748;1196;24693;-73
2022/12/27 11:50:01;;;;;;;;;60.00;45.00;;;;;;;;116686;1196;25105;-76
2022/12/27 11:52:38;;;;;;;;;56.00;41.00;;;;;;;;116780;1194;24748;-67
2022/12/27 11:55:45;;;;;;;;;54.00;41.00;;;;;;;;116731;1199;25804;-66
2022/12/27 11:58:34;;;;;;;;;54.00;43.00;;;;;;;;116458;1208;25328;-68
2022/12/27 12:01:27;;;;;;;;;45.00;37.00;;;;;;;;116399;1200;25300;-65
2022/12/27 12:04:05;;;;;;;;;57.00;43.00;;;;;;;;116679;1199;25659;-66
2022/12/27 12:06:33;;;;;;;;;59.00;43.00;;;;;;;;116772;1203;24773;-66
2022/12/27 12:09:13;;;;;;;;;56.00;42.00;;;;;;;;116744;1201;25396;-65
2022/12/27 12:12:06;;;;;;;;;59.00;42.50;;;;;;;;116761;1203;25142;-65
2022/12/27 12:14:41;;;;;;;;;55.00;42.00;;;;;;;;116734;1195;25442;-65
2022/12/27 12:17:47;;;;;;;;;54.00;40.00;;;;;;;;116789;1193;25802;-64
2022/12/27 12:20:53;;;;;;;;;57.00;42.00;;;;;;;;116762;1193;25110;-65
2022/12/27 12:23:41;;;;;;;;;56.00;42.00;;;;;;;;116770;1201;25149;-66
2022/12/27 12:26:16;;;;;;;;;54.00;44.00;;;;;;;;116757;1208;25009;-66
2022/12/27 12:29:21;;;;;;;;;56.00;43.00;;;;;;;;116743;1193;24719;-66
2022/12/27 12:32:27;;;;;;;;;61.00;44.00;;;;;;;;116739;1203;25232;-65
2022/12/27 12:35:23;;;;;;;;;55.00;40.00;;;;;;;;116730;1207;25724;-67
2022/12/27 12:38:21;;;;;;;;;52.00;41.50;;;;;;;;116774;1198;25405;-68
2022/12/27 12:41:06;;;;;;;;;52.00;39.50;;;;;;;;116772;1197;25421;-67
2022/12/27 12:44:02;;;;;;;;;46.00;39.00;;;;;;;;116748;1203;25234;-67
2022/12/27 12:46:45;;;;;;;;;56.00;42.00;;;;;;;;116711;1196;25468;-66
2022/12/27 12:49:50;;;;;;;;;52.50;40.00;;;;;;;;116813;1193;25064;-66
2022/12/27 12:52:34;;;;;;;;;57.00;41.00;;;;;;;;116716;1200;25540;-68
2022/12/27 12:55:24;;;;;;;;;54.00;42.00;;;;;;;;116773;1203;25577;-67
2022/12/27 12:58:16;;;;;;;;;49.50;37.00;;;;;;;;116772;1193;25562;-66
2022/12/27 13:01:13;;;;;;;;;48.50;41.50;;;;;;;;116705;1195;25423;-69
2022/12/27 13:04:12;;;;;;;;;52.00;41.00;;;;;;;;116745;1203;25255;-67
2022/12/27 13:07:07;;;;;;;;;54.50;41.00;;;;;;;;116758;1202;25480;-66
2022/12/27 13:09:39;;;;;;;;;56.00;40.00;;;;;;;;116736;1208;25585;-66
2022/12/27 13:12:31;;;;;;;;;47.50;36.00;;;;;;;;116728;1200;25496;-66
2022/12/27 13:15:05;;;;;;;;;51.00;39.00;;;;;;;;116806;1200;25158;-67
2022/12/27 13:17:51;;;;;;;;;54.33;39.33;;;;;;;;116737;1200;24772;-67
2022/12/27 13:20:53;;;;;;;;;58.67;39.00;;;;;;;;116739;1205;25240;-66
2022/12/27 13:23:35;;;;;;;;;53.00;39.00;;;;;;;;116715;1203;25141;-66
2022/12/27 13:26:19;;;;;;;;;53.50;40.50;;;;;;;;116792;1202;25249;-66
2022/12/27 13:29:28;;;;;;;;;51.00;36.00;;;;;;;;116735;1198;25678;-66
2022/12/27 13:31:59;;;;;;;;;52.00;38.00;;;;;;;;116730;1193;25043;-66
2022/12/27 13:34:30;;;;;;;;;45.00;37.00;;;;;;;;116750;1200;25220;-66
2022/12/27 13:37:13;;;;;;;;;51.00;39.00;;;;;;;;116792;1196;25070;-66
2022/12/27 13:40:14;;;;;;;;;55.00;38.00;;;;;;;;116773;1208;25640;-66
2022/12/27 13:43:04;;;;;;;;;47.50;35.00;;;;;;;;116764;1202;25265;-66
2022/12/27 13:45:43;;;;;;;;;48.00;37.00;;;;;;;;116746;1196;24893;-66
2022/12/27 13:48:33;;;;;;;;;48.00;39.00;;;;;;;;116776;1195;25584;-66
2022/12/27 13:51:23;;;;;;;;;45.00;32.50;;;;;;;;116741;1196;24920;-67
2022/12/27 13:54:16;;;;;;;;;48.00;38.00;;;;;;;;116742;1199;25409;-67
2022/12/27 13:56:57;;;;;;;;;48.50;36.50;;;;;;;;116768;1195;24684;-67
2022/12/27 13:59:45;;;;;;;;;43.00;33.00;;;;;;;;116742;1196;25660;-66
2022/12/27 14:02:19;;;;;;;;;45.00;35.00;;;;;;;;116810;1197;25410;-66
2022/12/27 14:05:18;;;;;;;;;44.50;35.00;;;;;;;;116733;1189;25748;-66
2022/12/27 14:08:03;;;;;;;;;44.50;34.00;;;;;;;;116762;1193;24809;-66
2022/12/27 14:10:36;;;;;;;;;42.00;35.00;;;;;;;;116786;1197;24911;-66
2022/12/27 14:13:09;;;;;;;;;44.50;34.00;;;;;;;;116768;1200;25012;-66
2022/12/27 14:15:59;;;;;;;;;38.00;31.00;;;;;;;;116798;1198;26222;-67
2022/12/27 14:19:21;;;;;;;;;47.00;35.00;;;;;;;;116745;1193;25001;-66
2022/12/27 14:22:14;;;;;;;;;35.00;32.00;;;;;;;;116504;1209;24837;-66
2022/12/27 14:24:55;;;;;;;;;41.33;34.00;;;;;;;;116718;1199;25403;-66
2022/12/27 14:27:23;;;;;;;;;43.00;33.00;;;;;;;;116736;1194;25628;-66
2022/12/27 14:30:15;;;;;;;;;41.00;31.67;;;;;;;;116755;1200;24970;-66
2022/12/27 14:33:14;;;;;;;;;40.67;34.00;;;;;;;;116699;1200;24914;-66
2022/12/27 14:36:24;;;;;;;;;41.00;33.00;;;;;;;;116739;1203;25432;-66
2022/12/27 14:39:04;;;;;;;;;44.67;34.67;;;;;;;;116765;1198;25039;-66
2022/12/27 14:42:01;;;;;;;;;49.00;35.00;;;;;;;;116749;1203;24956;-66
2022/12/27 14:45:16;;;;;;;;;47.00;33.50;;;;;;;;116765;1199;25410;-66
2022/12/27 14:48:08;;;;;;;;;39.00;34.00;;;;;;;;116777;1199;25378;-65
2022/12/27 14:51:07;;;;;;;;;46.50;32.50;;;;;;;;116788;1197;25324;-66
2022/12/27 14:54:26;;;;;;;;;38.00;34.00;;;;;;;;116723;1199;24706;-66
2022/12/27 14:57:00;;;;;;;;;39.33;31.00;;;;;;;;117079;1190;25324;-67
2022/12/27 14:59:41;;;;;;;;;39.33;33.33;;;;;;;;117048;1198;25249;-66
2022/12/27 15:02:43;;;;;;;;;44.50;34.50;;;;;;;;116740;1203;25313;-65
2022/12/27 15:05:31;;;;;;;;;38.00;33.00;;;;;;;;116757;1200;25063;-64
2022/12/27 15:08:18;;;;;;;;;40.00;32.00;;;;;;;;116740;1208;25463;-65
2022/12/27 15:11:17;;;;;;;;;36.50;30.00;;;;;;;;116732;1197;25045;-65
2022/12/27 15:14:06;;;;;;;;;36.00;30.50;;;;;;;;116729;1199;24955;-66
2022/12/27 15:16:38;;;;;;;;;39.50;33.50;;;;;;;;117068;1201;24894;-64
2022/12/27 15:19:32;;;;;;;;;37.50;29.00;;;;;;;;116727;1197;25317;-77
2022/12/27 15:22:08;;;;;;;;;32.00;29.50;;;;;;;;116731;1199;25623;-65
2022/12/27 15:24:49;;;;;;;;;39.00;33.00;;;;;;;;116683;1200;24901;-66
2022/12/27 15:27:27;;;;;;;;;40.33;32.00;;;;;;;;116743;1198;24702;-66
2022/12/27 15:29:58;;;;;;;;;30.00;26.00;;;;;;;;116723;1206;24944;-66
2022/12/27 15:32:32;;;;;;;;;29.00;29.00;;;;;;;;116749;1200;24793;-66
2022/12/27 15:35:29;;;;;;;;;37.00;29.50;;;;;;;;116745;1198;25036;-65
2022/12/27 15:38:12;;;;;;;;;36.50;29.50;;;;;;;;116783;1207;25499;-65
2022/12/27 15:41:08;;;;;;;;;31.50;29.50;;;;;;;;116716;1200;25526;-65
2022/12/27 15:43:42;;;;;;;;;33.00;30.00;;;;;;;;116772;1200;24739;-65
2022/12/27 15:46:39;;;;;;;;;36.00;31.00;;;;;;;;116745;1193;25533;-66
2022/12/27 15:49:08;;;;;;;;;26.00;22.00;;;;;;;;116777;1203;24971;-66
2022/12/27 15:52:21;;;;;;;;;35.00;30.00;;;;;;;;116728;1200;25258;-65
2022/12/27 15:54:49;;;;;;;;;30.50;28.50;;;;;;;;116735;1206;24931;-64
2022/12/27 15:57:21;;;;;;;;;34.00;29.00;;;;;;;;116712;1197;25634;-64
2022/12/27 15:59:51;;;;;;;;;34.00;29.00;;;;;;;;116717;1193;25048;-64
2022/12/27 16:02:49;;;;;;;;;33.67;26.00;;;;;;;;116790;1200;25640;-64
2022/12/27 16:05:18;;;;;;;;;41.67;29.67;;;;;;;;116690;1206;25724;-65
2022/12/27 16:08:00;;;;;;;;;35.00;29.00;;;;;;;;116729;1198;25466;-65
2022/12/27 16:10:31;;;;;;;;;34.00;23.50;;;;;;;;116716;1200;24971;-65
2022/12/27 16:13:08;;;;;;;;;32.00;27.50;;;;;;;;116747;1203;24877;-65
2022/12/27 16:15:43;;;;;;;;;27.00;24.00;;;;;;;;116710;1203;25231;-65
2022/12/27 16:18:20;;;;;;;;;30.00;24.00;;;;;;;;116736;1196;25260;-64
2022/12/27 16:21:12;;;;;;;;;32.50;25.50;;;;;;;;116734;1200;25303;-64
2022/12/27 16:23:49;;;;;;;;;35.50;24.50;;;;;;;;116993;1194;25024;-65
2022/12/27 16:26:27;;;;;;;;;31.00;23.33;;;;;;;;116812;1204;24815;-65
2022/12/27 16:29:02;;;;;;;;;35.50;24.50;;;;;;;;116773;1189;25469;-65
2022/12/27 16:31:32;;;;;;;;;40.00;28.00;;;;;;;;116740;1208;26469;-66
2022/12/27 16:34:27;;;;;;;;;21.50;19.00;;;;;;;;116765;1206;24914;-66
2022/12/27 16:36:59;;;;;;;;;33.00;29.00;;;;;;;;116750;1193;25387;-66
2022/12/27 16:39:53;;;;;;;;;31.00;22.00;;;;;;;;116775;1207;25076;-66
2022/12/27 16:43:00;;;;;;;;;27.00;23.00;;;;;;;;116714;1197;25137;-66
2022/12/27 16:45:38;;;;;;;;;26.00;26.00;;;;;;;;116641;1199;25308;-63
2022/12/27 16:48:32;;;;;;;;;31.00;27.00;;;;;;;;116739;1203;25357;-63